CSTAS LPCS-LPCS

Flight info

Callsign CSTAS
Flight time 0h 31m
Altitude 1500
Route DCT
Aircraft C152/L-SDG/C

Departure

Time 2026-04-20 16:40
Airport Cascais Airport (LPCS)

Arrival

Time 2026-04-20 17:11
Airport Cascais Airport (LPCS)
Time Latitude Longitude Altitude Speed Heading
2026-04-20 16:33 38.72368 -9.35327 320 ft 0 kts 150°
2026-04-20 16:38 38.72364 -9.35325 320 ft 5 kts 171°
2026-04-20 16:38 38.72372 -9.35379 320 ft 9 kts 296°
2026-04-20 16:38 38.72402 -9.35429 320 ft 10 kts 345°
2026-04-20 16:38 38.72501 -9.35465 319 ft 17 kts 344°
2026-04-20 16:39 38.72609 -9.35502 319 ft 15 kts 335°
2026-04-20 16:39 38.72673 -9.35563 320 ft 11 kts 213°
2026-04-20 16:39 38.72530 -9.35527 320 ft 44 kts 165°
2026-04-20 16:39 38.72123 -9.35395 422 ft 65 kts 173°
2026-04-20 16:40 38.71648 -9.35209 574 ft 73 kts 162°
2026-04-20 16:40 38.71205 -9.34953 814 ft 69 kts 159°
2026-04-20 16:40 38.70756 -9.34697 992 ft 70 kts 156°
2026-04-20 16:40 38.70304 -9.34402 1225 ft 76 kts 152°
2026-04-20 16:41 38.69832 -9.34037 1393 ft 82 kts 148°
2026-04-20 16:41 38.69347 -9.33618 1518 ft 88 kts 144°
2026-04-20 16:41 38.68848 -9.33148 1509 ft 91 kts 139°
2026-04-20 16:41 38.68480 -9.32501 1499 ft 92 kts 120°
2026-04-20 16:42 38.68357 -9.31703 1522 ft 95 kts 86°
2026-04-20 16:42 38.68517 -9.30890 1591 ft 89 kts 85°
2026-04-20 16:42 38.68860 -9.30275 1683 ft 96 kts 32°
2026-04-20 16:42 38.68992 -9.29549 1493 ft 97 kts 131°
2026-04-20 16:43 38.68652 -9.28867 1441 ft 92 kts 78°
2026-04-20 16:43 38.69188 -9.28868 1389 ft 95 kts 303°
2026-04-20 16:43 38.69402 -9.29622 1451 ft 90 kts 279°
2026-04-20 16:43 38.69490 -9.30396 1507 ft 89 kts 268°
2026-04-20 16:44 38.69449 -9.31159 1603 ft 84 kts 238°
2026-04-20 16:44 38.69030 -9.31385 1684 ft 70 kts 150°
2026-04-20 16:44 38.68931 -9.30781 1701 ft 85 kts 76°
2026-04-20 16:44 38.69189 -9.30017 1598 ft 99 kts 72°
2026-04-20 16:45 38.69463 -9.29201 1526 ft 100 kts 75°
2026-04-20 16:45 38.69686 -9.28377 1489 ft 95 kts 78°
2026-04-20 16:45 38.69839 -9.27587 1499 ft 89 kts 86°
2026-04-20 16:45 38.69942 -9.26784 1505 ft 93 kts 86°
2026-04-20 16:46 38.70029 -9.25951 1501 ft 96 kts 88°
2026-04-20 16:46 38.70093 -9.25111 1483 ft 95 kts 90°
2026-04-20 16:46 38.70235 -9.24298 1517 ft 95 kts 75°
2026-04-20 16:46 38.70529 -9.23510 1465 ft 96 kts 67°
2026-04-20 16:47 38.70874 -9.22807 1455 ft 93 kts 60°
2026-04-20 16:47 38.71275 -9.22176 1464 ft 91 kts 53°
2026-04-20 16:47 38.71736 -9.21596 1440 ft 93 kts 49°
2026-04-20 16:47 38.72219 -9.21032 1419 ft 93 kts 49°
2026-04-20 16:48 38.72695 -9.20451 1390 ft 95 kts 46°
2026-04-20 16:48 38.73187 -9.19928 1451 ft 88 kts 45°
2026-04-20 16:48 38.73709 -9.19482 1400 ft 99 kts 31°
2026-04-20 16:48 38.74372 -9.19223 1414 ft 97 kts 20°
2026-04-20 16:49 38.74998 -9.18948 1477 ft 94 kts 30°
2026-04-20 16:49 38.75574 -9.18560 1482 ft 94 kts 36°
2026-04-20 16:49 38.76132 -9.18136 1506 ft 93 kts 36°
2026-04-20 16:49 38.76674 -9.17677 1502 ft 96 kts 37°
2026-04-20 16:50 38.77230 -9.17185 1501 ft 98 kts 33°
2026-04-20 16:50 38.77816 -9.16710 1471 ft 99 kts 36°
2026-04-20 16:50 38.78379 -9.16195 1490 ft 98 kts 37°
2026-04-20 16:50 38.78936 -9.15684 1473 ft 100 kts 38°
2026-04-20 16:51 38.79485 -9.15101 1426 ft 100 kts 42°
2026-04-20 16:51 38.79988 -9.14542 1452 ft 92 kts 42°
2026-04-20 16:51 38.80494 -9.14014 1398 ft 97 kts 33°
2026-04-20 16:51 38.81050 -9.13570 1327 ft 94 kts 33°
2026-04-20 16:52 38.81350 -9.12884 1155 ft 96 kts 95°
2026-04-20 16:52 38.81018 -9.12173 961 ft 94 kts 159°
2026-04-20 16:52 38.80533 -9.12243 714 ft 63 kts 215°
2026-04-20 16:52 38.80168 -9.12467 607 ft 58 kts 211°
2026-04-20 16:53 38.79800 -9.12695 489 ft 59 kts 211°
2026-04-20 16:53 38.79420 -9.12892 402 ft 57 kts 210°
2026-04-20 16:53 38.79069 -9.13082 351 ft 44 kts 211°
2026-04-20 16:53 38.78864 -9.13203 350 ft 40 kts 204°
2026-04-20 16:54 38.78504 -9.13377 450 ft 61 kts 208°
2026-04-20 16:54 38.78086 -9.13638 588 ft 69 kts 211°
2026-04-20 16:54 38.77621 -9.13886 700 ft 75 kts 205°
2026-04-20 16:54 38.77109 -9.14115 820 ft 80 kts 205°
2026-04-20 16:55 38.76597 -9.14381 1061 ft 82 kts 208°
2026-04-20 16:55 38.76076 -9.14398 1314 ft 75 kts 142°
2026-04-20 16:55 38.75925 -9.13762 1441 ft 83 kts 88°
2026-04-20 16:55 38.76130 -9.13026 1504 ft 96 kts 66°
2026-04-20 16:56 38.76667 -9.12429 1485 ft 110 kts 26°
2026-04-20 16:56 38.77376 -9.12063 1529 ft 109 kts 22°
2026-04-20 16:56 38.77970 -9.11559 1594 ft 100 kts 65°
2026-04-20 16:56 38.77841 -9.10749 1472 ft 98 kts 136°
2026-04-20 16:57 38.77244 -9.10345 1406 ft 95 kts 162°
2026-04-20 16:57 38.76622 -9.10078 1382 ft 92 kts 152°
2026-04-20 16:57 38.76027 -9.09732 1253 ft 96 kts 159°
2026-04-20 16:57 38.75513 -9.09293 1288 ft 88 kts 123°
2026-04-20 16:58 38.75274 -9.08503 1063 ft 106 kts 109°
2026-04-20 16:58 38.75029 -9.07619 1082 ft 102 kts 114°
2026-04-20 16:58 38.74752 -9.06815 1171 ft 97 kts 117°
2026-04-20 16:58 38.74444 -9.06022 1118 ft 105 kts 124°
2026-04-20 16:59 38.74038 -9.05214 1014 ft 110 kts 128°
2026-04-20 16:59 38.73558 -9.04483 669 ft 94 kts 140°
2026-04-20 16:59 38.73098 -9.04015 390 ft 79 kts 155°
2026-04-20 16:59 38.72632 -9.03727 225 ft 73 kts 167°
2026-04-20 17:00 38.71725 -9.03586 18 ft 48 kts 195°
2026-04-20 17:00 38.71447 -9.03630 16 ft 51 kts 189°
2026-04-20 17:00 38.71039 -9.03707 172 ft 62 kts 193°
2026-04-20 17:01 38.70574 -9.03763 355 ft 71 kts 194°
2026-04-20 17:01 38.70059 -9.03952 512 ft 78 kts 210°
2026-04-20 17:01 38.69587 -9.04312 687 ft 82 kts 223°
2026-04-20 17:01 38.69155 -9.04840 814 ft 87 kts 233°
2026-04-20 17:02 38.68764 -9.05449 943 ft 91 kts 233°
2026-04-20 17:02 38.68421 -9.06128 1089 ft 92 kts 238°
2026-04-20 17:02 38.68098 -9.06833 1245 ft 92 kts 236°
2026-04-20 17:02 38.67809 -9.07582 1352 ft 97 kts 249°
2026-04-20 17:03 38.67629 -9.08432 1425 ft 100 kts 253°
2026-04-20 17:03 38.67467 -9.09317 1495 ft 107 kts 254°
2026-04-20 17:03 38.67318 -9.10270 1542 ft 111 kts 257°
2026-04-20 17:03 38.67216 -9.11256 1554 ft 115 kts 258°
2026-04-20 17:04 38.67118 -9.12277 1570 ft 115 kts 259°
2026-04-20 17:04 38.67019 -9.13298 1560 ft 117 kts 257°
2026-04-20 17:04 38.66911 -9.14326 1575 ft 116 kts 258°
2026-04-20 17:04 38.66800 -9.15363 1579 ft 118 kts 258°
2026-04-20 17:05 38.66720 -9.16418 1548 ft 121 kts 253°
2026-04-20 17:05 38.66510 -9.17470 1509 ft 121 kts 251°
2026-04-20 17:05 38.66272 -9.18550 1353 ft 128 kts 252°
2026-04-20 17:05 38.66139 -9.19653 1287 ft 127 kts 272°
2026-04-20 17:06 38.66248 -9.20787 1138 ft 131 kts 276°
2026-04-20 17:06 38.66362 -9.21871 1250 ft 119 kts 270°
2026-04-20 17:06 38.66344 -9.22922 1269 ft 118 kts 267°
2026-04-20 17:06 38.66320 -9.23954 1254 ft 109 kts 266°
2026-04-20 17:07 38.66292 -9.24849 1255 ft 99 kts 264°
2026-04-20 17:07 38.66276 -9.25747 1427 ft 101 kts 265°
2026-04-20 17:07 38.66287 -9.26638 1452 ft 99 kts 266°
2026-04-20 17:07 38.66303 -9.27508 1452 ft 95 kts 266°
2026-04-20 17:08 38.66297 -9.28351 1450 ft 97 kts 264°
2026-04-20 17:08 38.66271 -9.29201 1481 ft 95 kts 265°
2026-04-20 17:08 38.66444 -9.30029 1446 ft 99 kts 298°
2026-04-20 17:08 38.66890 -9.30708 1416 ft 99 kts 315°
2026-04-20 17:09 38.67383 -9.31316 1428 ft 98 kts 317°
2026-04-20 17:09 38.67868 -9.31922 1434 ft 98 kts 314°
2026-04-20 17:09 38.68336 -9.32561 1429 ft 101 kts 313°
2026-04-20 17:09 38.68825 -9.33247 1333 ft 107 kts 309°
2026-04-20 17:10 38.69292 -9.33916 1154 ft 88 kts 316°
2026-04-20 17:10 38.69737 -9.34337 951 ft 75 kts 329°
2026-04-20 17:10 38.70200 -9.34617 816 ft 73 kts 335°
2026-04-20 17:10 38.70663 -9.34828 673 ft 68 kts 340°
2026-04-20 17:11 38.71105 -9.35004 543 ft 66 kts 338°
2026-04-20 17:11 38.71571 -9.35175 432 ft 70 kts 338°
2026-04-20 17:11 38.72024 -9.35338 330 ft 61 kts 338°
2026-04-20 17:11 38.72323 -9.35451 321 ft 24 kts 346°
2026-04-20 17:12 38.72377 -9.35398 320 ft 10 kts 73°
2026-04-20 17:12 38.72402 -9.35373 320 ft 4 kts 50°
2026-04-20 17:12 38.72399 -9.35359 320 ft 0 kts 160°
2026-04-20 17:12 38.72398 -9.35358 320 ft 0 kts 160°